sensor_id;sensor_type;location;lat;lon;timestamp;P1;durP1;ratioP1;P2;durP2;ratioP2
6735;SDS011;3405;50.576;12.364;2023-08-21T00:00:52;7.90;;;5.93;;
6735;SDS011;3405;50.576;12.364;2023-08-21T00:03:18;7.38;;;5.95;;
6735;SDS011;3405;50.576;12.364;2023-08-21T00:05:43;8.60;;;6.30;;
6735;SDS011;3405;50.576;12.364;2023-08-21T00:08:09;7.55;;;6.22;;
6735;SDS011;3405;50.576;12.364;2023-08-21T00:10:38;7.95;;;6.15;;
6735;SDS011;3405;50.576;12.364;2023-08-21T00:13:06;7.53;;;6.15;;
6735;SDS011;3405;50.576;12.364;2023-08-21T00:15:32;7.30;;;5.68;;
6735;SDS011;3405;50.576;12.364;2023-08-21T00:17:58;9.55;;;6.15;;
6735;SDS011;3405;50.576;12.364;2023-08-21T00:20:25;7.20;;;5.85;;
6735;SDS011;3405;50.576;12.364;2023-08-21T00:22:51;7.70;;;6.63;;
6735;SDS011;3405;50.576;12.364;2023-08-21T00:25:17;7.38;;;6.18;;
6735;SDS011;3405;50.576;12.364;2023-08-21T00:27:43;8.25;;;6.40;;
6735;SDS011;3405;50.576;12.364;2023-08-21T00:30:09;8.07;;;6.15;;
6735;SDS011;3405;50.576;12.364;2023-08-21T00:32:35;10.77;;;6.50;;
6735;SDS011;3405;50.576;12.364;2023-08-21T00:35:01;7.30;;;6.20;;
6735;SDS011;3405;50.576;12.364;2023-08-21T00:37:27;8.35;;;6.47;;
6735;SDS011;3405;50.576;12.364;2023-08-21T00:39:53;7.97;;;6.28;;
6735;SDS011;3405;50.576;12.364;2023-08-21T00:42:19;9.00;;;6.75;;
6735;SDS011;3405;50.576;12.364;2023-08-21T00:44:45;9.40;;;6.20;;
6735;SDS011;3405;50.576;12.364;2023-08-21T00:47:11;8.65;;;6.25;;
6735;SDS011;3405;50.576;12.364;2023-08-21T00:49:36;8.55;;;5.78;;
6735;SDS011;3405;50.576;12.364;2023-08-21T00:52:04;8.55;;;6.15;;
6735;SDS011;3405;50.576;12.364;2023-08-21T00:54:31;6.35;;;5.72;;
6735;SDS011;3405;50.576;12.364;2023-08-21T00:56:57;6.68;;;5.97;;
6735;SDS011;3405;50.576;12.364;2023-08-21T00:59:23;9.57;;;6.35;;
6735;SDS011;3405;50.576;12.364;2023-08-21T01:01:49;8.90;;;6.07;;
6735;SDS011;3405;50.576;12.364;2023-08-21T01:04:15;7.38;;;6.28;;
6735;SDS011;3405;50.576;12.364;2023-08-21T01:06:41;8.60;;;6.22;;
6735;SDS011;3405;50.576;12.364;2023-08-21T01:09:13;7.32;;;6.32;;
6735;SDS011;3405;50.576;12.364;2023-08-21T01:11:46;8.00;;;6.10;;
6735;SDS011;3405;50.576;12.364;2023-08-21T01:14:22;9.90;;;6.93;;
6735;SDS011;3405;50.576;12.364;2023-08-21T01:16:54;11.63;;;6.78;;
6735;SDS011;3405;50.576;12.364;2023-08-21T01:19:26;7.97;;;6.65;;
6735;SDS011;3405;50.576;12.364;2023-08-21T01:21:56;6.97;;;6.13;;
6735;SDS011;3405;50.576;12.364;2023-08-21T01:24:23;7.28;;;6.57;;
6735;SDS011;3405;50.576;12.364;2023-08-21T01:26:49;7.65;;;5.85;;
6735;SDS011;3405;50.576;12.364;2023-08-21T01:29:15;7.50;;;6.43;;
6735;SDS011;3405;50.576;12.364;2023-08-21T01:31:41;9.98;;;6.20;;
6735;SDS011;3405;50.576;12.364;2023-08-21T01:34:09;9.43;;;5.82;;
6735;SDS011;3405;50.576;12.364;2023-08-21T01:36:37;7.55;;;6.55;;
6735;SDS011;3405;50.576;12.364;2023-08-21T01:39:03;11.05;;;6.53;;
6735;SDS011;3405;50.576;12.364;2023-08-21T01:41:29;12.43;;;7.03;;
6735;SDS011;3405;50.576;12.364;2023-08-21T01:43:55;8.43;;;6.45;;
6735;SDS011;3405;50.576;12.364;2023-08-21T01:46:21;7.90;;;6.65;;
6735;SDS011;3405;50.576;12.364;2023-08-21T01:48:47;10.63;;;7.70;;
6735;SDS011;3405;50.576;12.364;2023-08-21T01:51:13;8.90;;;7.07;;
6735;SDS011;3405;50.576;12.364;2023-08-21T01:53:39;9.68;;;6.50;;
6735;SDS011;3405;50.576;12.364;2023-08-21T01:56:05;10.35;;;7.20;;
6735;SDS011;3405;50.576;12.364;2023-08-21T01:58:30;9.40;;;6.80;;
6735;SDS011;3405;50.576;12.364;2023-08-21T02:00:56;9.02;;;6.78;;
6735;SDS011;3405;50.576;12.364;2023-08-21T02:03:24;9.98;;;7.13;;
6735;SDS011;3405;50.576;12.364;2023-08-21T02:05:50;10.75;;;7.32;;
6735;SDS011;3405;50.576;12.364;2023-08-21T02:08:17;9.40;;;6.90;;
6735;SDS011;3405;50.576;12.364;2023-08-21T02:10:48;9.95;;;6.80;;
6735;SDS011;3405;50.576;12.364;2023-08-21T02:13:14;8.35;;;6.97;;
6735;SDS011;3405;50.576;12.364;2023-08-21T02:15:39;8.02;;;7.10;;
6735;SDS011;3405;50.576;12.364;2023-08-21T02:18:05;10.52;;;6.90;;
6735;SDS011;3405;50.576;12.364;2023-08-21T02:20:31;10.80;;;6.93;;
6735;SDS011;3405;50.576;12.364;2023-08-21T02:22:57;10.73;;;6.97;;
6735;SDS011;3405;50.576;12.364;2023-08-21T02:25:23;11.82;;;7.53;;
6735;SDS011;3405;50.576;12.364;2023-08-21T02:27:49;8.52;;;6.40;;
6735;SDS011;3405;50.576;12.364;2023-08-21T02:30:15;10.70;;;7.10;;
6735;SDS011;3405;50.576;12.364;2023-08-21T02:32:41;8.73;;;6.40;;
6735;SDS011;3405;50.576;12.364;2023-08-21T02:35:07;9.63;;;7.15;;
6735;SDS011;3405;50.576;12.364;2023-08-21T02:37:34;9.95;;;7.22;;
6735;SDS011;3405;50.576;12.364;2023-08-21T02:40:03;7.63;;;6.60;;
6735;SDS011;3405;50.576;12.364;2023-08-21T02:42:30;10.07;;;6.70;;
6735;SDS011;3405;50.576;12.364;2023-08-21T02:44:56;9.07;;;6.28;;
6735;SDS011;3405;50.576;12.364;2023-08-21T02:47:21;9.90;;;6.60;;
6735;SDS011;3405;50.576;12.364;2023-08-21T02:49:47;9.43;;;6.57;;
6735;SDS011;3405;50.576;12.364;2023-08-21T02:52:13;7.25;;;6.00;;
6735;SDS011;3405;50.576;12.364;2023-08-21T02:54:39;8.77;;;7.07;;
6735;SDS011;3405;50.576;12.364;2023-08-21T02:57:05;7.38;;;6.57;;
6735;SDS011;3405;50.576;12.364;2023-08-21T02:59:31;7.13;;;6.18;;
6735;SDS011;3405;50.576;12.364;2023-08-21T03:01:57;8.18;;;6.18;;
6735;SDS011;3405;50.576;12.364;2023-08-21T03:04:23;8.43;;;6.28;;
6735;SDS011;3405;50.576;12.364;2023-08-21T03:06:49;7.53;;;6.20;;
6735;SDS011;3405;50.576;12.364;2023-08-21T03:09:15;8.50;;;5.85;;
6735;SDS011;3405;50.576;12.364;2023-08-21T03:11:41;8.80;;;6.68;;
6735;SDS011;3405;50.576;12.364;2023-08-21T03:14:07;8.18;;;6.18;;
6735;SDS011;3405;50.576;12.364;2023-08-21T03:16:33;9.20;;;6.20;;
6735;SDS011;3405;50.576;12.364;2023-08-21T03:18:59;8.10;;;5.60;;
6735;SDS011;3405;50.576;12.364;2023-08-21T03:21:26;6.38;;;5.70;;
6735;SDS011;3405;50.576;12.364;2023-08-21T03:23:56;8.10;;;5.80;;
6735;SDS011;3405;50.576;12.364;2023-08-21T03:26:23;7.38;;;5.75;;
6735;SDS011;3405;50.576;12.364;2023-08-21T03:28:49;7.65;;;6.00;;
6735;SDS011;3405;50.576;12.364;2023-08-21T03:31:15;6.68;;;4.95;;
6735;SDS011;3405;50.576;12.364;2023-08-21T03:33:41;7.20;;;5.80;;
6735;SDS011;3405;50.576;12.364;2023-08-21T03:36:07;6.65;;;5.57;;
6735;SDS011;3405;50.576;12.364;2023-08-21T03:38:33;7.97;;;5.72;;
6735;SDS011;3405;50.576;12.364;2023-08-21T03:40:59;6.68;;;5.97;;
6735;SDS011;3405;50.576;12.364;2023-08-21T03:43:25;7.28;;;5.93;;
6735;SDS011;3405;50.576;12.364;2023-08-21T03:45:51;7.18;;;5.45;;
6735;SDS011;3405;50.576;12.364;2023-08-21T03:48:17;9.18;;;7.22;;
6735;SDS011;3405;50.576;12.364;2023-08-21T03:50:43;10.38;;;7.60;;
6735;SDS011;3405;50.576;12.364;2023-08-21T03:53:09;17.33;;;6.93;;
6735;SDS011;3405;50.576;12.364;2023-08-21T03:55:35;8.50;;;5.95;;
6735;SDS011;3405;50.576;12.364;2023-08-21T03:58:01;12.93;;;7.20;;
6735;SDS011;3405;50.576;12.364;2023-08-21T04:00:27;7.88;;;6.70;;
6735;SDS011;3405;50.576;12.364;2023-08-21T04:02:53;7.78;;;6.18;;
6735;SDS011;3405;50.576;12.364;2023-08-21T04:05:19;10.10;;;6.28;;
6735;SDS011;3405;50.576;12.364;2023-08-21T04:07:45;13.30;;;6.72;;
6735;SDS011;3405;50.576;12.364;2023-08-21T04:10:11;17.20;;;6.18;;
6735;SDS011;3405;50.576;12.364;2023-08-21T04:12:37;6.60;;;5.88;;
6735;SDS011;3405;50.576;12.364;2023-08-21T04:15:03;6.85;;;6.18;;
6735;SDS011;3405;50.576;12.364;2023-08-21T04:17:31;7.93;;;6.15;;
6735;SDS011;3405;50.576;12.364;2023-08-21T04:19:56;6.65;;;5.90;;
6735;SDS011;3405;50.576;12.364;2023-08-21T04:22:22;9.07;;;6.10;;
6735;SDS011;3405;50.576;12.364;2023-08-21T04:24:48;8.15;;;6.47;;
6735;SDS011;3405;50.576;12.364;2023-08-21T04:27:14;8.95;;;6.75;;
6735;SDS011;3405;50.576;12.364;2023-08-21T04:29:40;8.45;;;6.03;;
6735;SDS011;3405;50.576;12.364;2023-08-21T04:32:06;8.90;;;6.88;;
6735;SDS011;3405;50.576;12.364;2023-08-21T04:34:32;8.93;;;6.28;;
6735;SDS011;3405;50.576;12.364;2023-08-21T04:36:58;13.27;;;6.93;;
6735;SDS011;3405;50.576;12.364;2023-08-21T04:39:25;7.50;;;6.50;;
6735;SDS011;3405;50.576;12.364;2023-08-21T04:41:51;10.23;;;7.35;;
6735;SDS011;3405;50.576;12.364;2023-08-21T04:44:17;9.23;;;6.65;;
6735;SDS011;3405;50.576;12.364;2023-08-21T04:46:43;10.18;;;6.75;;
6735;SDS011;3405;50.576;12.364;2023-08-21T04:49:09;8.65;;;6.47;;
6735;SDS011;3405;50.576;12.364;2023-08-21T04:51:35;6.45;;;5.75;;
6735;SDS011;3405;50.576;12.364;2023-08-21T04:54:01;7.05;;;6.18;;
6735;SDS011;3405;50.576;12.364;2023-08-21T04:56:27;6.53;;;5.45;;
6735;SDS011;3405;50.576;12.364;2023-08-21T04:58:53;10.05;;;6.55;;
6735;SDS011;3405;50.576;12.364;2023-08-21T05:01:19;7.35;;;6.10;;
6735;SDS011;3405;50.576;12.364;2023-08-21T05:03:45;9.15;;;5.95;;
6735;SDS011;3405;50.576;12.364;2023-08-21T05:06:11;6.78;;;6.00;;
6735;SDS011;3405;50.576;12.364;2023-08-21T05:08:36;7.05;;;5.88;;
6735;SDS011;3405;50.576;12.364;2023-08-21T05:11:02;6.65;;;5.65;;
6735;SDS011;3405;50.576;12.364;2023-08-21T05:13:28;9.38;;;5.95;;
6735;SDS011;3405;50.576;12.364;2023-08-21T05:15:54;9.73;;;6.03;;
6735;SDS011;3405;50.576;12.364;2023-08-21T05:18:21;11.07;;;6.43;;
6735;SDS011;3405;50.576;12.364;2023-08-21T05:20:47;6.80;;;6.03;;
6735;SDS011;3405;50.576;12.364;2023-08-21T05:23:14;10.25;;;6.80;;
6735;SDS011;3405;50.576;12.364;2023-08-21T05:25:40;9.65;;;5.63;;
6735;SDS011;3405;50.576;12.364;2023-08-21T05:28:06;7.40;;;5.50;;
6735;SDS011;3405;50.576;12.364;2023-08-21T05:30:32;8.18;;;6.07;;
6735;SDS011;3405;50.576;12.364;2023-08-21T05:32:58;10.73;;;6.35;;
6735;SDS011;3405;50.576;12.364;2023-08-21T05:35:24;11.80;;;6.22;;
6735;SDS011;3405;50.576;12.364;2023-08-21T05:37:50;6.90;;;5.97;;
6735;SDS011;3405;50.576;12.364;2023-08-21T05:40:16;11.18;;;6.95;;
6735;SDS011;3405;50.576;12.364;2023-08-21T05:42:42;10.10;;;7.18;;
6735;SDS011;3405;50.576;12.364;2023-08-21T05:45:08;8.18;;;6.20;;
6735;SDS011;3405;50.576;12.364;2023-08-21T05:47:34;18.35;;;6.70;;
6735;SDS011;3405;50.576;12.364;2023-08-21T05:49:59;11.80;;;7.22;;
6735;SDS011;3405;50.576;12.364;2023-08-21T05:52:25;15.02;;;7.78;;
6735;SDS011;3405;50.576;12.364;2023-08-21T05:54:51;21.52;;;8.02;;
6735;SDS011;3405;50.576;12.364;2023-08-21T05:57:17;10.20;;;7.15;;
6735;SDS011;3405;50.576;12.364;2023-08-21T05:59:46;10.82;;;7.40;;
6735;SDS011;3405;50.576;12.364;2023-08-21T06:02:13;8.07;;;6.30;;
6735;SDS011;3405;50.576;12.364;2023-08-21T06:04:40;12.68;;;7.63;;
6735;SDS011;3405;50.576;12.364;2023-08-21T06:07:06;10.75;;;6.97;;
6735;SDS011;3405;50.576;12.364;2023-08-21T06:09:32;11.32;;;6.93;;
6735;SDS011;3405;50.576;12.364;2023-08-21T06:11:59;11.13;;;6.20;;
6735;SDS011;3405;50.576;12.364;2023-08-21T06:14:26;15.93;;;6.65;;
6735;SDS011;3405;50.576;12.364;2023-08-21T06:17:01;10.93;;;6.57;;
6735;SDS011;3405;50.576;12.364;2023-08-21T06:19:28;12.02;;;6.30;;
6735;SDS011;3405;50.576;12.364;2023-08-21T06:21:54;11.10;;;6.25;;
6735;SDS011;3405;50.576;12.364;2023-08-21T06:24:20;7.03;;;5.97;;
6735;SDS011;3405;50.576;12.364;2023-08-21T06:26:46;10.88;;;6.00;;
6735;SDS011;3405;50.576;12.364;2023-08-21T06:29:12;6.75;;;5.93;;
6735;SDS011;3405;50.576;12.364;2023-08-21T06:31:38;11.60;;;6.20;;
6735;SDS011;3405;50.576;12.364;2023-08-21T06:34:04;9.82;;;6.72;;
6735;SDS011;3405;50.576;12.364;2023-08-21T06:36:30;8.25;;;6.32;;
6735;SDS011;3405;50.576;12.364;2023-08-21T06:38:56;10.52;;;7.05;;
6735;SDS011;3405;50.576;12.364;2023-08-21T06:41:22;11.80;;;6.32;;
6735;SDS011;3405;50.576;12.364;2023-08-21T06:43:50;7.53;;;6.15;;
6735;SDS011;3405;50.576;12.364;2023-08-21T06:46:16;10.70;;;6.75;;
6735;SDS011;3405;50.576;12.364;2023-08-21T06:48:42;7.30;;;6.57;;
6735;SDS011;3405;50.576;12.364;2023-08-21T06:51:08;13.35;;;7.03;;
6735;SDS011;3405;50.576;12.364;2023-08-21T06:53:35;11.32;;;8.18;;
6735;SDS011;3405;50.576;12.364;2023-08-21T06:56:01;11.25;;;8.88;;
6735;SDS011;3405;50.576;12.364;2023-08-21T06:58:27;9.50;;;7.63;;
6735;SDS011;3405;50.576;12.364;2023-08-21T07:00:54;8.52;;;6.28;;
6735;SDS011;3405;50.576;12.364;2023-08-21T07:03:20;9.90;;;7.50;;
6735;SDS011;3405;50.576;12.364;2023-08-21T07:05:52;8.55;;;7.65;;
6735;SDS011;3405;50.576;12.364;2023-08-21T07:08:19;9.70;;;6.80;;
6735;SDS011;3405;50.576;12.364;2023-08-21T07:10:45;9.63;;;7.18;;
6735;SDS011;3405;50.576;12.364;2023-08-21T07:13:11;7.78;;;6.80;;
6735;SDS011;3405;50.576;12.364;2023-08-21T07:15:37;7.65;;;6.72;;
6735;SDS011;3405;50.576;12.364;2023-08-21T07:18:03;7.32;;;6.57;;
6735;SDS011;3405;50.576;12.364;2023-08-21T07:20:29;7.65;;;6.68;;
6735;SDS011;3405;50.576;12.364;2023-08-21T07:22:55;8.05;;;7.18;;
6735;SDS011;3405;50.576;12.364;2023-08-21T07:25:21;8.93;;;6.68;;
6735;SDS011;3405;50.576;12.364;2023-08-21T07:27:47;14.45;;;7.70;;
6735;SDS011;3405;50.576;12.364;2023-08-21T07:30:16;9.18;;;7.38;;
6735;SDS011;3405;50.576;12.364;2023-08-21T07:32:42;10.45;;;7.57;;
6735;SDS011;3405;50.576;12.364;2023-08-21T07:35:08;10.23;;;7.55;;
6735;SDS011;3405;50.576;12.364;2023-08-21T07:37:35;9.50;;;7.25;;
6735;SDS011;3405;50.576;12.364;2023-08-21T07:40:01;11.02;;;8.05;;
6735;SDS011;3405;50.576;12.364;2023-08-21T07:42:27;9.82;;;7.40;;
6735;SDS011;3405;50.576;12.364;2023-08-21T07:44:53;8.27;;;6.88;;
6735;SDS011;3405;50.576;12.364;2023-08-21T07:47:19;11.80;;;8.23;;
6735;SDS011;3405;50.576;12.364;2023-08-21T07:49:45;11.68;;;8.40;;
6735;SDS011;3405;50.576;12.364;2023-08-21T07:52:11;9.18;;;7.45;;
6735;SDS011;3405;50.576;12.364;2023-08-21T07:54:37;9.07;;;7.82;;
6735;SDS011;3405;50.576;12.364;2023-08-21T07:57:03;11.68;;;7.10;;
6735;SDS011;3405;50.576;12.364;2023-08-21T07:59:29;10.20;;;8.13;;
6735;SDS011;3405;50.576;12.364;2023-08-21T08:01:55;9.65;;;7.97;;
6735;SDS011;3405;50.576;12.364;2023-08-21T08:04:21;10.20;;;7.93;;
6735;SDS011;3405;50.576;12.364;2023-08-21T08:06:47;9.82;;;8.40;;
6735;SDS011;3405;50.576;12.364;2023-08-21T08:09:13;14.32;;;9.02;;
6735;SDS011;3405;50.576;12.364;2023-08-21T08:11:39;8.32;;;7.50;;
6735;SDS011;3405;50.576;12.364;2023-08-21T08:14:05;7.55;;;6.80;;
6735;SDS011;3405;50.576;12.364;2023-08-21T08:16:31;9.35;;;7.80;;
6735;SDS011;3405;50.576;12.364;2023-08-21T08:18:57;8.90;;;7.65;;
6735;SDS011;3405;50.576;12.364;2023-08-21T08:21:23;14.05;;;8.13;;
6735;SDS011;3405;50.576;12.364;2023-08-21T08:23:49;15.13;;;7.72;;
6735;SDS011;3405;50.576;12.364;2023-08-21T08:26:15;8.52;;;7.15;;
6735;SDS011;3405;50.576;12.364;2023-08-21T08:28:42;9.27;;;8.23;;
6735;SDS011;3405;50.576;12.364;2023-08-21T08:31:14;9.00;;;8.10;;
6735;SDS011;3405;50.576;12.364;2023-08-21T08:33:40;9.65;;;7.53;;
6735;SDS011;3405;50.576;12.364;2023-08-21T08:36:06;8.70;;;7.80;;
6735;SDS011;3405;50.576;12.364;2023-08-21T08:38:31;9.40;;;8.50;;
6735;SDS011;3405;50.576;12.364;2023-08-21T08:40:57;9.55;;;8.43;;
6735;SDS011;3405;50.576;12.364;2023-08-21T08:43:24;9.32;;;8.43;;
6735;SDS011;3405;50.576;12.364;2023-08-21T08:45:50;10.07;;;7.85;;
6735;SDS011;3405;50.576;12.364;2023-08-21T08:48:19;12.73;;;8.18;;
6735;SDS011;3405;50.576;12.364;2023-08-21T08:50:45;8.32;;;7.43;;
6735;SDS011;3405;50.576;12.364;2023-08-21T08:53:13;8.35;;;7.55;;
6735;SDS011;3405;50.576;12.364;2023-08-21T08:55:39;10.35;;;8.20;;
6735;SDS011;3405;50.576;12.364;2023-08-21T08:58:05;9.43;;;8.40;;
6735;SDS011;3405;50.576;12.364;2023-08-21T09:00:31;9.80;;;8.30;;
6735;SDS011;3405;50.576;12.364;2023-08-21T09:02:57;9.00;;;8.10;;
6735;SDS011;3405;50.576;12.364;2023-08-21T09:05:23;9.80;;;8.13;;
6735;SDS011;3405;50.576;12.364;2023-08-21T09:08:02;8.95;;;8.05;;
6735;SDS011;3405;50.576;12.364;2023-08-21T09:10:28;9.88;;;7.85;;
6735;SDS011;3405;50.576;12.364;2023-08-21T09:12:54;13.10;;;8.50;;
6735;SDS011;3405;50.576;12.364;2023-08-21T09:15:24;8.07;;;7.28;;
6735;SDS011;3405;50.576;12.364;2023-08-21T09:17:53;9.15;;;7.43;;
6735;SDS011;3405;50.576;12.364;2023-08-21T09:20:20;10.15;;;7.25;;
6735;SDS011;3405;50.576;12.364;2023-08-21T09:22:52;8.85;;;7.38;;
6735;SDS011;3405;50.576;12.364;2023-08-21T09:25:19;8.57;;;7.68;;
6735;SDS011;3405;50.576;12.364;2023-08-21T09:27:45;7.47;;;6.18;;
6735;SDS011;3405;50.576;12.364;2023-08-21T09:30:11;7.72;;;6.68;;
6735;SDS011;3405;50.576;12.364;2023-08-21T09:32:53;7.65;;;6.60;;
6735;SDS011;3405;50.576;12.364;2023-08-21T09:35:20;7.25;;;6.55;;
6735;SDS011;3405;50.576;12.364;2023-08-21T09:37:46;9.57;;;6.97;;
6735;SDS011;3405;50.576;12.364;2023-08-21T09:40:13;12.13;;;6.85;;
6735;SDS011;3405;50.576;12.364;2023-08-21T09:42:40;8.15;;;6.55;;
6735;SDS011;3405;50.576;12.364;2023-08-21T09:45:06;8.45;;;6.78;;
6735;SDS011;3405;50.576;12.364;2023-08-21T09:47:32;8.13;;;6.45;;
6735;SDS011;3405;50.576;12.364;2023-08-21T09:49:58;10.82;;;6.18;;
6735;SDS011;3405;50.576;12.364;2023-08-21T09:52:24;7.97;;;6.50;;
6735;SDS011;3405;50.576;12.364;2023-08-21T09:54:52;8.73;;;6.70;;
6735;SDS011;3405;50.576;12.364;2023-08-21T09:57:18;8.85;;;5.80;;
6735;SDS011;3405;50.576;12.364;2023-08-21T09:59:47;10.88;;;6.38;;
6735;SDS011;3405;50.576;12.364;2023-08-21T10:02:14;11.10;;;6.57;;
6735;SDS011;3405;50.576;12.364;2023-08-21T10:04:40;7.25;;;6.20;;
6735;SDS011;3405;50.576;12.364;2023-08-21T10:07:10;8.65;;;6.40;;
6735;SDS011;3405;50.576;12.364;2023-08-21T10:09:37;10.80;;;6.70;;
6735;SDS011;3405;50.576;12.364;2023-08-21T10:12:04;8.13;;;6.53;;
6735;SDS011;3405;50.576;12.364;2023-08-21T10:14:30;9.77;;;6.13;;
6735;SDS011;3405;50.576;12.364;2023-08-21T10:16:56;7.45;;;6.50;;
6735;SDS011;3405;50.576;12.364;2023-08-21T10:19:22;10.52;;;6.45;;
6735;SDS011;3405;50.576;12.364;2023-08-21T10:21:49;7.53;;;6.22;;
6735;SDS011;3405;50.576;12.364;2023-08-21T10:24:27;11.50;;;6.35;;
6735;SDS011;3405;50.576;12.364;2023-08-21T10:26:54;8.20;;;6.13;;
6735;SDS011;3405;50.576;12.364;2023-08-21T10:29:20;8.32;;;5.70;;
6735;SDS011;3405;50.576;12.364;2023-08-21T10:31:46;9.05;;;5.82;;
6735;SDS011;3405;50.576;12.364;2023-08-21T10:34:12;11.20;;;6.10;;
6735;SDS011;3405;50.576;12.364;2023-08-21T10:39:16;12.10;;;6.25;;
6735;SDS011;3405;50.576;12.364;2023-08-21T10:49:54;9.38;;;5.72;;
6735;SDS011;3405;50.576;12.364;2023-08-21T10:54:50;13.85;;;5.72;;
6735;SDS011;3405;50.576;12.364;2023-08-21T10:57:16;10.80;;;6.18;;
6735;SDS011;3405;50.576;12.364;2023-08-21T10:59:49;9.85;;;5.70;;
6735;SDS011;3405;50.576;12.364;2023-08-21T11:02:15;8.20;;;5.47;;
6735;SDS011;3405;50.576;12.364;2023-08-21T11:04:41;8.85;;;5.72;;
6735;SDS011;3405;50.576;12.364;2023-08-21T11:07:09;8.45;;;5.43;;
6735;SDS011;3405;50.576;12.364;2023-08-21T11:09:35;7.82;;;5.88;;
6735;SDS011;3405;50.576;12.364;2023-08-21T11:12:05;15.90;;;6.80;;
6735;SDS011;3405;50.576;12.364;2023-08-21T11:14:31;9.02;;;6.28;;
6735;SDS011;3405;50.576;12.364;2023-08-21T11:16:59;9.18;;;6.35;;
6735;SDS011;3405;50.576;12.364;2023-08-21T11:19:24;10.98;;;6.63;;
6735;SDS011;3405;50.576;12.364;2023-08-21T11:21:51;9.10;;;6.25;;
6735;SDS011;3405;50.576;12.364;2023-08-21T11:24:17;10.45;;;6.75;;
6735;SDS011;3405;50.576;12.364;2023-08-21T11:26:43;10.65;;;5.57;;
6735;SDS011;3405;50.576;12.364;2023-08-21T11:29:09;7.93;;;5.55;;
6735;SDS011;3405;50.576;12.364;2023-08-21T11:31:35;7.60;;;4.82;;
6735;SDS011;3405;50.576;12.364;2023-08-21T11:34:01;9.57;;;5.75;;
6735;SDS011;3405;50.576;12.364;2023-08-21T11:36:27;10.68;;;5.28;;
6735;SDS011;3405;50.576;12.364;2023-08-21T11:38:59;10.25;;;5.30;;
6735;SDS011;3405;50.576;12.364;2023-08-21T11:41:26;6.63;;;4.97;;
6735;SDS011;3405;50.576;12.364;2023-08-21T11:43:52;8.15;;;5.05;;
